createdAt,value
2023-03-21T00:02:35.569Z,101108.44
2023-03-21T00:07:32.511Z,101127.13
2023-03-21T00:12:25.903Z,100913.44
2023-03-21T00:17:22.460Z,101121.03
2023-03-21T00:22:16.086Z,100932.81
2023-03-21T00:27:38.390Z,101101.91
2023-03-21T00:32:24.890Z,101112.75
2023-03-21T00:37:19.140Z,100955.34
2023-03-21T00:42:13.816Z,101113.34
2023-03-21T00:47:08.227Z,101105.59
2023-03-21T00:52:14.685Z,101093.88
2023-03-21T00:57:10.220Z,101083.16
2023-03-21T01:02:07.476Z,100938.38
2023-03-21T01:07:01.239Z,101077.31
2023-03-21T01:11:56.509Z,101033.72
2023-03-21T01:16:50.402Z,100952.59
2023-03-21T01:21:48.076Z,100988.00
2023-03-21T01:26:43.939Z,100908.91
2023-03-21T01:31:37.260Z,101005.28
2023-03-21T01:36:31.948Z,100996.25
2023-03-21T01:41:44.298Z,100998.50
2023-03-21T01:46:56.999Z,101014.25
2023-03-21T01:52:12.804Z,100915.69
2023-03-21T01:57:17.785Z,100930.94
2023-03-21T02:02:20.879Z,100919.28
2023-03-21T02:07:37.009Z,101001.09
2023-03-21T02:12:33.733Z,100977.28
2023-03-21T02:17:36.967Z,100986.66
2023-03-21T02:23:05.037Z,100978.09
2023-03-21T02:28:09.546Z,100953.00
2023-03-21T02:33:30.145Z,101003.47
2023-03-21T02:38:30.481Z,101015.41
2023-03-21T02:43:32.392Z,100986.34
2023-03-21T02:48:48.136Z,100975.91
2023-03-21T02:54:13.019Z,101030.19
2023-03-21T02:59:08.248Z,101023.84
2023-03-21T03:04:02.484Z,101051.91
2023-03-21T03:09:16.064Z,101026.84
2023-03-21T03:14:56.525Z,100963.50
2023-03-21T03:20:24.116Z,100951.13
2023-03-21T03:25:32.657Z,101004.38
2023-03-21T03:30:42.251Z,101037.47
2023-03-21T03:35:41.214Z,101031.19
2023-03-21T03:40:42.373Z,100994.91
2023-03-21T03:45:48.756Z,101050.00
2023-03-21T03:50:48.524Z,101015.19
2023-03-21T03:55:48.710Z,101001.94
2023-03-21T04:00:43.849Z,100984.09
2023-03-21T04:05:37.308Z,101039.63
2023-03-21T04:10:31.778Z,101036.16
2023-03-21T04:15:28.386Z,100972.00
2023-03-21T04:20:43.492Z,101060.13
2023-03-21T04:25:44.656Z,100905.91
2023-03-21T04:31:00.258Z,100972.81
2023-03-21T04:35:59.085Z,101026.50
2023-03-21T04:40:57.895Z,101015.09
2023-03-21T04:45:53.554Z,101052.47
2023-03-21T04:50:47.355Z,100948.31
2023-03-21T04:55:40.686Z,100977.81
2023-03-21T05:00:37.606Z,101084.34
2023-03-21T05:05:33.850Z,101062.47
2023-03-21T05:10:27.102Z,101076.44
2023-03-21T05:15:23.066Z,101079.13
2023-03-21T05:20:20.286Z,101063.13
2023-03-21T05:25:18.184Z,101082.72
2023-03-21T05:30:25.171Z,101013.69
2023-03-21T05:35:24.495Z,101040.59
2023-03-21T05:40:21.345Z,101035.47
2023-03-21T05:45:15.405Z,101066.47
2023-03-21T05:50:11.479Z,101010.09
2023-03-21T05:55:07.613Z,100998.78
2023-03-21T06:00:03.307Z,101057.69
2023-03-21T06:05:09.084Z,101065.22
2023-03-21T06:10:02.652Z,101071.50
2023-03-21T06:14:58.862Z,101079.59
2023-03-21T06:20:01.204Z,101058.13
2023-03-21T06:25:10.359Z,101070.03
2023-03-21T06:30:05.042Z,101038.56
2023-03-21T06:35:05.903Z,101091.75
2023-03-21T06:39:59.397Z,101095.41
2023-03-21T06:44:52.707Z,101087.25
2023-03-21T06:49:46.031Z,101086.69
2023-03-21T06:54:41.525Z,101107.91
2023-03-21T06:59:39.057Z,101098.72
2023-03-21T07:05:01.142Z,101077.88
2023-03-21T07:09:57.738Z,101082.31
2023-03-21T07:14:54.327Z,101093.31
2023-03-21T07:19:47.553Z,101058.41
2023-03-21T07:24:43.479Z,101087.94
2023-03-21T07:29:38.129Z,101083.72
2023-03-21T07:34:33.903Z,101084.69
2023-03-21T07:39:29.919Z,101067.56
2023-03-21T07:44:23.411Z,101074.00
2023-03-21T07:49:34.146Z,101021.44
2023-03-21T07:54:28.815Z,100989.69
2023-03-21T07:59:22.333Z,101023.66
2023-03-21T08:04:18.604Z,101044.13
2023-03-21T08:09:13.140Z,101090.16
2023-03-21T08:14:06.289Z,101086.31
2023-03-21T08:18:59.603Z,101096.81
2023-03-21T08:23:55.386Z,101078.03
2023-03-21T08:28:50.222Z,101049.47
2023-03-21T08:33:43.529Z,101015.41
2023-03-21T08:38:37.131Z,101080.78
2023-03-21T08:43:30.553Z,101051.97
2023-03-21T08:48:25.718Z,101095.88
2023-03-21T08:53:22.266Z,101036.63
2023-03-21T08:58:15.598Z,101081.38
2023-03-21T09:03:11.215Z,101077.84
2023-03-21T09:08:06.600Z,101039.41
2023-03-21T09:12:59.926Z,101063.03
2023-03-21T09:17:54.490Z,100970.16
2023-03-21T09:22:48.977Z,100979.75
2023-03-21T09:27:47.171Z,101025.38
2023-03-21T09:32:43.007Z,101044.41
2023-03-21T09:37:38.435Z,101032.53
2023-03-21T09:42:41.797Z,101038.81
2023-03-21T09:47:45.500Z,101018.50
2023-03-21T09:52:48.230Z,101054.94
2023-03-21T09:57:45.885Z,101042.38
2023-03-21T10:02:45.677Z,101035.13
2023-03-21T10:07:44.674Z,101054.50
2023-03-21T10:12:38.000Z,101060.78
2023-03-21T10:17:35.218Z,101020.94
2023-03-21T10:22:29.725Z,101055.94
2023-03-21T10:27:22.848Z,101056.03
2023-03-21T10:32:19.457Z,101036.41
2023-03-21T10:37:13.973Z,100929.88
2023-03-21T10:42:18.668Z,101038.81
2023-03-21T10:47:11.979Z,101026.19
2023-03-21T10:52:08.559Z,100997.53
2023-03-21T10:57:05.969Z,101003.66
2023-03-21T11:02:00.604Z,101010.72
2023-03-21T11:06:57.018Z,100991.47
2023-03-21T11:11:55.932Z,101001.31
2023-03-21T11:16:52.304Z,101017.56
2023-03-21T11:21:47.351Z,101018.44
2023-03-21T11:26:43.602Z,100986.31
2023-03-21T11:31:41.303Z,100992.66
2023-03-21T11:36:39.355Z,100978.00
2023-03-21T11:41:35.718Z,100822.38
2023-03-21T11:46:33.358Z,100950.00
2023-03-21T11:51:34.849Z,100982.13
2023-03-21T11:56:31.282Z,100971.22
2023-03-21T12:01:33.496Z,100939.38
2023-03-21T12:06:31.727Z,100959.31
2023-03-21T12:11:37.353Z,100944.91
2023-03-21T12:16:44.669Z,100939.47
2023-03-21T12:21:48.101Z,100957.59
2023-03-21T12:26:53.383Z,100817.50
2023-03-21T12:31:59.355Z,100901.81
2023-03-21T12:37:14.469Z,100883.25
2023-03-21T12:42:25.718Z,100889.34
2023-03-21T12:47:24.775Z,100883.94
2023-03-21T12:52:21.594Z,100875.78
2023-03-21T12:57:21.388Z,100879.09
2023-03-21T13:02:27.934Z,100858.19
2023-03-21T13:07:25.327Z,100839.91
2023-03-21T13:12:29.828Z,100871.22
2023-03-21T13:17:31.510Z,100884.34
2023-03-21T13:22:29.391Z,100853.31
2023-03-21T13:27:29.753Z,100848.88
2023-03-21T13:32:30.906Z,100843.91
2023-03-21T13:37:28.092Z,100720.81
2023-03-21T13:42:31.910Z,100867.16
2023-03-21T13:47:40.632Z,100821.47
2023-03-21T13:52:33.755Z,100841.81
2023-03-21T13:57:40.322Z,100822.28
2023-03-21T14:02:39.652Z,100861.19
2023-03-21T14:07:35.041Z,100808.19
2023-03-21T14:12:30.525Z,100830.19
2023-03-21T14:17:26.606Z,100822.19
2023-03-21T14:22:21.340Z,100817.72
2023-03-21T14:27:15.030Z,100828.59
2023-03-21T14:32:19.118Z,100816.81
2023-03-21T14:37:12.790Z,100814.88
2023-03-21T14:42:09.415Z,100793.44
2023-03-21T14:47:03.984Z,100786.34
2023-03-21T14:52:00.149Z,100777.25
2023-03-21T14:57:00.121Z,100796.06
2023-03-21T15:01:56.016Z,100747.78
2023-03-21T15:06:57.822Z,100787.47
2023-03-21T15:11:53.617Z,100741.72
2023-03-21T15:16:47.829Z,100766.22
2023-03-21T15:21:56.200Z,100737.47
2023-03-21T15:26:50.638Z,100748.41
2023-03-21T15:31:45.774Z,100786.78
2023-03-21T15:36:48.061Z,100759.13
2023-03-21T15:41:43.154Z,100769.75
2023-03-21T15:46:43.196Z,100773.66
2023-03-21T15:51:42.679Z,100795.13
2023-03-21T15:56:37.538Z,100787.78
2023-03-21T16:01:35.018Z,100679.28
2023-03-21T16:07:02.658Z,100758.56
2023-03-21T16:12:02.778Z,100790.09
2023-03-21T16:16:59.362Z,100734.97
2023-03-21T16:21:53.524Z,100759.44
2023-03-21T16:27:00.156Z,100771.31
2023-03-21T16:32:00.806Z,100745.56
2023-03-21T16:37:04.762Z,100653.97
2023-03-21T16:42:01.484Z,100673.50
2023-03-21T16:46:55.019Z,100697.00
2023-03-21T16:51:49.701Z,100833.94
2023-03-21T16:56:50.492Z,100846.25
2023-03-21T17:01:52.164Z,100826.38
2023-03-21T17:06:47.597Z,100778.63
2023-03-21T17:11:51.723Z,100828.91
2023-03-21T17:16:47.879Z,100776.97
2023-03-21T17:21:41.573Z,100821.06
2023-03-21T17:26:35.034Z,100795.13
2023-03-21T17:31:47.574Z,100858.34
2023-03-21T17:36:45.041Z,100756.00
2023-03-21T17:41:38.499Z,100787.00
2023-03-21T17:46:37.926Z,100841.91
2023-03-21T17:51:33.312Z,100873.34
2023-03-21T17:56:30.105Z,100788.16
2023-03-21T18:01:24.218Z,100840.53
2023-03-21T18:06:28.922Z,100753.94
2023-03-21T18:11:25.844Z,100871.38
2023-03-21T18:16:28.277Z,100808.25
2023-03-21T18:21:38.093Z,100693.78
2023-03-21T18:26:33.004Z,100779.78
2023-03-21T18:31:31.482Z,100868.31
2023-03-21T18:36:27.819Z,100780.13
2023-03-21T18:41:24.888Z,100858.34
2023-03-21T18:46:19.998Z,100867.88
2023-03-21T18:51:13.504Z,100775.28
2023-03-21T18:56:10.229Z,100831.63
2023-03-21T19:01:07.023Z,100830.81
2023-03-21T19:06:03.907Z,100866.56
2023-03-21T19:11:00.277Z,100872.88
2023-03-21T19:15:56.698Z,100802.66
2023-03-21T19:20:53.614Z,100834.44
2023-03-21T19:25:48.370Z,100745.69
2023-03-21T19:30:49.849Z,100786.19
2023-03-21T19:35:43.929Z,100861.28
2023-03-21T19:40:40.020Z,100859.03
2023-03-21T19:45:39.470Z,100833.88
2023-03-21T19:50:57.998Z,100866.56
2023-03-21T19:55:54.095Z,100788.97
2023-03-21T20:00:49.397Z,100843.69
2023-03-21T20:05:45.256Z,100852.16
2023-03-21T20:10:38.928Z,100864.38
2023-03-21T20:15:32.361Z,100778.78
2023-03-21T20:20:28.093Z,100885.25
2023-03-21T20:25:23.191Z,100721.03
2023-03-21T20:30:19.024Z,100884.78
2023-03-21T20:35:21.149Z,100885.84
2023-03-21T20:40:26.674Z,100732.78
2023-03-21T20:45:20.775Z,100866.81
2023-03-21T20:50:15.765Z,100856.22
2023-03-21T20:55:11.631Z,100892.53
2023-03-21T21:00:13.786Z,100885.16
2023-03-21T21:05:25.325Z,100886.59
2023-03-21T21:10:22.453Z,100839.44
2023-03-21T21:15:19.686Z,100877.63
2023-03-21T21:20:20.663Z,100911.78
2023-03-21T21:25:16.050Z,100890.97
2023-03-21T21:30:20.373Z,100929.88
2023-03-21T21:35:13.762Z,100910.44
2023-03-21T21:40:13.017Z,100924.81
2023-03-21T21:45:08.691Z,100938.47
2023-03-21T21:50:03.480Z,100921.88
2023-03-21T21:54:56.834Z,100880.88
2023-03-21T21:59:54.281Z,100909.66
2023-03-21T22:04:47.525Z,100940.56
2023-03-21T22:09:42.438Z,100949.25
2023-03-21T22:14:36.019Z,100898.31
2023-03-21T22:19:32.616Z,100951.03
2023-03-21T22:24:26.157Z,100897.94
2023-03-21T22:29:20.896Z,100947.78
2023-03-21T22:34:14.089Z,100951.47
2023-03-21T22:39:07.430Z,100874.19
2023-03-21T22:44:00.892Z,100901.00
2023-03-21T22:48:55.707Z,100951.19
2023-03-21T22:53:51.304Z,100925.19
2023-03-21T22:58:44.501Z,100844.47
2023-03-21T23:03:38.402Z,100910.16
2023-03-21T23:08:32.965Z,100899.66
2023-03-21T23:13:26.644Z,100930.88
2023-03-21T23:18:19.912Z,100942.41
2023-03-21T23:23:13.143Z,100896.53
2023-03-21T23:28:08.337Z,100928.78
2023-03-21T23:33:01.512Z,100827.56
2023-03-21T23:37:54.614Z,100923.41
2023-03-21T23:42:47.740Z,100935.72
2023-03-21T23:47:42.337Z,100868.25
2023-03-21T23:52:35.785Z,100898.47
2023-03-21T23:57:29.010Z,100885.34
